createdAt,value
2022-11-24T15:35:21.596Z,100845.13
2022-11-24T15:38:25.529Z,100844.03
2022-11-24T15:41:31.274Z,100853.13
2022-11-24T15:44:35.119Z,100851.34
2022-11-24T15:47:38.932Z,100846.34
2022-11-24T15:50:44.044Z,100856.91
2022-11-24T15:53:52.447Z,100855.66
2022-11-24T15:56:57.913Z,100853.75
2022-11-24T16:00:01.704Z,100848.66
2022-11-24T16:03:38.245Z,100865.78
2022-11-24T16:06:30.989Z,100856.81
2022-11-24T16:09:34.599Z,100850.38
2022-11-24T16:12:38.296Z,100844.91
2022-11-24T16:15:42.095Z,100850.97
2022-11-24T16:18:45.994Z,100845.00
2022-11-24T16:21:51.058Z,100850.34
2022-11-24T16:24:54.659Z,100852.03
2022-11-24T16:27:58.531Z,100856.38
2022-11-24T16:31:02.606Z,100863.72
2022-11-24T16:34:06.254Z,100870.00
2022-11-24T16:37:11.288Z,100871.22
2022-11-24T16:40:15.333Z,100871.13
2022-11-24T16:43:19.022Z,100875.03
2022-11-24T16:46:24.498Z,100874.31
2022-11-24T16:49:28.216Z,100874.84
2022-11-24T16:52:33.270Z,100875.88
2022-11-24T16:55:36.987Z,100886.75
2022-11-24T16:58:42.211Z,100887.16
2022-11-24T17:01:46.716Z,100893.91
2022-11-24T17:04:52.461Z,100891.38
2022-11-24T17:07:57.557Z,100890.91
2022-11-24T17:11:06.833Z,100897.06
2022-11-24T17:14:11.225Z,100901.81
2022-11-24T17:17:14.959Z,100903.91
2022-11-24T17:20:18.752Z,100899.38
2022-11-24T17:23:23.843Z,100908.66
2022-11-24T17:26:28.789Z,100905.31
2022-11-24T17:29:32.483Z,100903.34
2022-11-24T17:32:36.146Z,100898.13
2022-11-24T17:35:39.874Z,100900.69
2022-11-24T17:38:45.122Z,100903.97
2022-11-24T17:41:48.786Z,100911.53
2022-11-24T17:44:52.520Z,100911.78
2022-11-24T17:47:56.593Z,100913.94
2022-11-24T17:51:01.909Z,100920.16
2022-11-24T17:54:24.675Z,100924.69
2022-11-24T17:57:30.881Z,100930.50
2022-11-24T18:00:34.591Z,100929.09
2022-11-24T18:03:39.604Z,100934.75
2022-11-24T18:06:43.327Z,100943.78
2022-11-24T18:09:48.444Z,100946.56
2022-11-24T18:12:52.174Z,100948.00
2022-11-24T18:15:55.788Z,100949.22
2022-11-24T18:19:10.112Z,100941.63
2022-11-24T18:22:14.258Z,100946.47
2022-11-24T18:25:19.537Z,100950.78
2022-11-24T18:28:23.389Z,100960.56
2022-11-24T18:31:27.313Z,100961.50
2022-11-24T18:34:31.001Z,100958.34
2022-11-24T18:37:36.761Z,100974.50
2022-11-24T18:40:41.899Z,100968.97
2022-11-24T18:43:45.746Z,100965.84
2022-11-24T18:46:50.170Z,100964.72
2022-11-24T18:49:53.859Z,100977.97
2022-11-24T18:52:57.464Z,100974.72
2022-11-24T18:56:04.959Z,100975.69
2022-11-24T18:59:08.722Z,100974.00
2022-11-24T19:02:12.585Z,100979.44
2022-11-24T19:05:16.416Z,100978.72
2022-11-24T19:08:20.115Z,100979.44
2022-11-24T19:11:28.072Z,100987.78
2022-11-24T19:14:31.737Z,100989.38
2022-11-24T19:17:35.379Z,100994.50
2022-11-24T19:20:38.965Z,100984.31
2022-11-24T19:23:42.656Z,100988.16
2022-11-24T19:26:47.767Z,100994.44
2022-11-24T19:29:51.468Z,100992.22
2022-11-24T19:32:55.095Z,100991.53
2022-11-24T19:36:02.485Z,100994.06
2022-11-24T19:39:06.385Z,101000.81
2022-11-24T19:42:11.399Z,101005.53
2022-11-24T19:45:15.033Z,101000.28
2022-11-24T19:48:18.660Z,101001.16
2022-11-24T19:51:25.378Z,101009.59
2022-11-24T19:54:29.274Z,101014.44
2022-11-24T19:57:34.265Z,101019.84
2022-11-24T20:00:37.966Z,101023.41
2022-11-24T20:03:42.978Z,101017.50
2022-11-24T20:06:48.256Z,101014.94
2022-11-24T20:09:52.042Z,101027.75
2022-11-24T20:12:57.116Z,101031.03
2022-11-24T20:16:04.414Z,101026.13
2022-11-24T20:19:10.936Z,101025.56
2022-11-24T20:22:14.663Z,101032.88
2022-11-24T20:25:18.388Z,101028.53
2022-11-24T20:28:23.427Z,101027.69
2022-11-24T20:31:29.405Z,101041.38
2022-11-24T20:34:33.549Z,101040.47
2022-11-24T20:37:37.261Z,101038.94
2022-11-24T20:40:41.004Z,101041.31
2022-11-24T20:43:46.985Z,101047.03
2022-11-24T20:46:50.968Z,101052.09
2022-11-24T20:49:54.671Z,101058.31
2022-11-24T20:52:58.383Z,101055.28
2022-11-24T20:56:06.203Z,101065.00
2022-11-24T20:59:13.959Z,101060.44
2022-11-24T21:02:17.767Z,101069.63
2022-11-24T21:05:21.522Z,101059.38
2022-11-24T21:08:25.312Z,101063.47
2022-11-24T21:11:29.057Z,101074.38
2022-11-24T21:14:35.481Z,101062.81
2022-11-24T21:17:39.305Z,101069.13
2022-11-24T21:20:42.897Z,101073.34
2022-11-24T21:23:46.828Z,101071.69
2022-11-24T21:26:52.659Z,101074.75
2022-11-24T21:29:57.855Z,101076.97
2022-11-24T21:33:02.823Z,101082.06
2022-11-24T21:36:07.190Z,101082.91
2022-11-24T21:39:12.748Z,101074.44
2022-11-24T21:42:16.406Z,101071.53
